Terminal Aerodrome Forecast
Issued by NWS

Home | Current Version | Previous Version | Text Only | Print | Product List | Glossary On
Versions: 1 2 3 4 5 6 7 8 9 10 11 12 13
000
FTUS45 KRIW 290524
TAFJAC
TAF
KJAC 290524Z 2906/3006 34005KT P6SM SKC
     FM291400 VRB05KT P6SM SKC
     FM292000 21008KT P6SM SCT250
     FM300300 VRB05KT P6SM SCT250
      AMD LTD TO CLD VIS AND WIND=

USA.gov is the U.S. government's official web portal to all federal, state and local government web resources and services.